KANB

Anniston Regional Airport

Anniston, Alabama, USA
KANB 260520Z 2606/2706 06003KT P6SM SKC FM261000 07003KT P6SM VCSH OVC030 FM261300 10008KT 4SM RA VCTS OVC020CB FM261800 15010KT P6SM SHRA OVC015 FM262100 27012G20KT P6SM VCSH OVC030
Issued Valid From Valid To
Apr-26 @ 05:20 UTC
(36 minutes ago)
Apr-26 @ 06:00 UTC
(in 4 minutes)
Apr-27 @ 06:00 UTC
(in 24 hours)
Apr-26 @ 06:00 to Apr-26 @ 10:00
KANB 260520Z 2606/2706 06003KT P6SM SKC
Wind Visibility Clouds
60° at 3 knots Greater than 6 miles
  • Clear skies
From Apr-26 @ 10:00 to Apr-26 @ 13:00
FM261000 07003KT P6SM VCSH OVC030
Wind Visibility Clouds
70° at 3 knots Greater than 6 miles
  • Overcast at 3,000' AGL
From Apr-26 @ 13:00 to Apr-26 @ 18:00
FM261300 10008KT 4SM RA VCTS OVC020CB
Wind Visibility Clouds Conditions
100° at 8 knots 4 miles
  • Overcast at 2,000' AGL
  • Rain
  • Area Thunderstorm
From Apr-26 @ 18:00 to Apr-26 @ 21:00
FM261800 15010KT P6SM SHRA OVC015
Wind Visibility Clouds Conditions
150° at 10 knots Greater than 6 miles
  • Overcast at 1,500' AGL
  • Rain
From Apr-26 @ 21:00 to Apr-27 @ 06:00
FM262100 27012G20KT P6SM VCSH OVC030
Wind Visibility Clouds
270° at 12 knots
 Gusting to 20 knots
Greater than 6 miles
  • Overcast at 3,000' AGL
KANB 260520Z 2606/2706 06003KT P6SM SKC FM261000 07003KT P6SM VCSH OVC030 FM261300 10008KT 4SM RA VCTS OVC020CB FM261800 15010KT P6SM SHRA OVC015 FM262100 27012G20KT P6SM VCSH OVC030
Issued Apr-26 @ 05:20 UTC
(36 minutes ago)
Valid From Apr-26 @ 06:00 UTC
(in 4 minutes)
Valid To Apr-27 @ 06:00 UTC
(in 24 hours)
Apr-26 @ 06:00 - Apr-26 @ 10:00
Wind Visibility
60° at 3 knots Greater than 6 miles
Clouds
  • Clear skies
From Apr-26 @ 10:00 - Apr-26 @ 13:00
Wind Visibility
70° at 3 knots Greater than 6 miles
Clouds
  • Overcast at 3,000' AGL
From Apr-26 @ 13:00 - Apr-26 @ 18:00
Wind Visibility
100° at 8 knots 4 miles
Clouds
  • Overcast at 2,000' AGL
Conditions
  • Rain
  • Area Thunderstorm
From Apr-26 @ 18:00 - Apr-26 @ 21:00
Wind Visibility
150° at 10 knots Greater than 6 miles
Clouds
  • Overcast at 1,500' AGL
Conditions
  • Rain
From Apr-26 @ 21:00 - Apr-27 @ 06:00
Wind Visibility
270° at 12 knots
 Gusting to 20 knots
Greater than 6 miles
Clouds
  • Overcast at 3,000' AGL